createdAt,value
2022-11-22T00:00:28.324Z,2.17
2022-11-22T00:02:55.494Z,2.30
2022-11-22T00:05:22.312Z,2.17
2022-11-22T00:07:49.203Z,2.23
2022-11-22T00:10:16.215Z,2.23
2022-11-22T00:12:43.439Z,1.87
2022-11-22T00:15:12.027Z,1.90
2022-11-22T00:17:39.250Z,1.90
2022-11-22T00:20:08.399Z,2.20
2022-11-22T00:22:39.748Z,2.13
2022-11-22T00:25:10.170Z,2.50
2022-11-22T00:27:37.179Z,2.40
2022-11-22T00:30:04.497Z,2.30
2022-11-22T00:32:31.395Z,2.10
2022-11-22T00:34:58.363Z,2.60
2022-11-22T00:37:25.386Z,2.37
2022-11-22T00:39:52.426Z,2.30
2022-11-22T00:42:19.281Z,2.30
2022-11-22T00:44:46.107Z,2.00
2022-11-22T00:47:13.143Z,2.60
2022-11-22T00:49:40.531Z,1.93
2022-11-22T00:52:07.376Z,2.40
2022-11-22T00:54:34.247Z,2.23
2022-11-22T00:57:01.082Z,2.50
2022-11-22T00:59:28.067Z,1.93
2022-11-22T01:01:55.366Z,2.10
2022-11-22T01:04:22.270Z,2.30
2022-11-22T01:06:49.114Z,2.30
2022-11-22T01:09:22.127Z,2.50
2022-11-22T01:11:49.888Z,2.60
2022-11-22T01:14:17.723Z,2.60
2022-11-22T01:16:44.990Z,2.50
2022-11-22T01:19:12.103Z,1.70
2022-11-22T01:21:39.459Z,2.27
2022-11-22T01:24:07.115Z,2.80
2022-11-22T01:26:34.808Z,2.10
2022-11-22T01:29:01.654Z,1.90
2022-11-22T01:31:30.365Z,2.67
2022-11-22T01:33:59.242Z,2.10
2022-11-22T01:36:27.812Z,2.40
2022-11-22T01:38:55.241Z,2.03
2022-11-22T01:41:22.303Z,2.57
2022-11-22T01:43:49.841Z,2.50
2022-11-22T01:46:38.498Z,2.60
2022-11-22T01:49:14.493Z,2.80
2022-11-22T01:51:44.578Z,2.73
2022-11-22T01:54:19.978Z,2.23
2022-11-22T01:56:50.696Z,2.50
2022-11-22T01:59:21.478Z,2.63
2022-11-22T02:01:48.950Z,2.80
2022-11-22T02:04:19.095Z,2.57
2022-11-22T02:07:07.779Z,2.60
2022-11-22T02:09:35.982Z,2.70
2022-11-22T02:12:05.440Z,2.27
2022-11-22T02:14:34.069Z,2.23
2022-11-22T02:17:01.022Z,2.77
2022-11-22T02:19:40.459Z,2.63
2022-11-22T02:22:25.758Z,2.40
2022-11-22T02:24:58.001Z,2.77
2022-11-22T02:27:24.941Z,2.50
2022-11-22T02:29:51.802Z,1.97
2022-11-22T02:32:18.723Z,2.60
2022-11-22T02:34:50.171Z,2.27
2022-11-22T02:37:25.322Z,2.17
2022-11-22T02:39:57.379Z,2.50
2022-11-22T02:42:26.260Z,2.70
2022-11-22T02:44:53.318Z,2.73
2022-11-22T02:47:20.310Z,2.20
2022-11-22T02:49:47.134Z,2.73
2022-11-22T02:52:18.819Z,2.87
2022-11-22T02:54:46.538Z,2.50
2022-11-22T02:57:13.652Z,2.60
2022-11-22T02:59:40.435Z,2.50
2022-11-22T03:02:07.391Z,2.13
2022-11-22T03:04:34.227Z,2.63
2022-11-22T03:07:02.520Z,2.57
2022-11-22T03:09:29.708Z,2.50
2022-11-22T03:11:57.013Z,2.47
2022-11-22T03:14:24.322Z,2.87
2022-11-22T03:16:51.636Z,2.73
2022-11-22T03:19:18.621Z,2.40
2022-11-22T03:21:45.898Z,2.53
2022-11-22T03:24:12.963Z,2.20
2022-11-22T03:26:40.085Z,2.50
2022-11-22T03:29:06.943Z,2.67
2022-11-22T03:31:33.870Z,2.37
2022-11-22T03:34:00.811Z,2.30
2022-11-22T03:36:27.749Z,2.30
2022-11-22T03:38:54.503Z,2.67
2022-11-22T03:41:21.438Z,2.83
2022-11-22T03:43:48.351Z,2.50
2022-11-22T03:46:16.962Z,2.73
2022-11-22T03:48:43.834Z,3.17
2022-11-22T03:51:10.949Z,2.63
2022-11-22T03:53:38.497Z,2.90
2022-11-22T03:56:06.413Z,2.27
2022-11-22T03:58:33.739Z,2.53
2022-11-22T04:01:01.304Z,2.50
2022-11-22T04:03:28.931Z,2.23
2022-11-22T04:06:02.227Z,1.40
2022-11-22T04:08:29.215Z,2.07
2022-11-22T04:10:55.902Z,2.63
2022-11-22T04:13:42.608Z,2.13
2022-11-22T04:16:09.463Z,2.70
2022-11-22T04:18:36.203Z,2.17
2022-11-22T04:21:21.642Z,2.40
2022-11-22T04:24:08.494Z,2.27
2022-11-22T04:26:35.362Z,2.30
2022-11-22T04:29:09.584Z,2.43
2022-11-22T04:31:55.483Z,2.20
2022-11-22T04:34:22.256Z,2.10
2022-11-22T04:36:48.913Z,2.33
2022-11-22T04:39:15.779Z,2.43
2022-11-22T04:41:42.559Z,2.70
2022-11-22T04:44:28.579Z,2.03
2022-11-22T04:46:55.371Z,2.60
2022-11-22T04:49:22.074Z,2.00
2022-11-22T04:52:08.062Z,2.17
2022-11-22T04:54:34.872Z,2.57
2022-11-22T04:57:01.732Z,2.37
2022-11-22T04:59:28.933Z,2.40
2022-11-22T05:01:55.889Z,2.37
2022-11-22T05:04:22.552Z,2.40
2022-11-22T05:06:49.429Z,2.47
2022-11-22T05:09:16.826Z,2.13
2022-11-22T05:11:43.825Z,2.67
2022-11-22T05:14:11.198Z,2.40
2022-11-22T05:16:38.068Z,2.27
2022-11-22T05:19:04.760Z,2.63
2022-11-22T05:21:33.664Z,2.20
2022-11-22T05:24:00.549Z,1.80
2022-11-22T05:26:30.395Z,2.80
2022-11-22T05:29:00.507Z,2.40
2022-11-22T05:31:27.971Z,2.23
2022-11-22T05:33:56.582Z,2.20
2022-11-22T05:36:24.317Z,2.00
2022-11-22T05:38:51.465Z,1.93
2022-11-22T05:41:19.453Z,2.40
2022-11-22T05:43:46.433Z,1.90
2022-11-22T05:46:18.310Z,2.13
2022-11-22T05:48:49.469Z,1.97
2022-11-22T05:51:18.681Z,1.90
2022-11-22T05:53:46.381Z,2.17
2022-11-22T05:56:16.394Z,2.60
2022-11-22T05:58:43.861Z,2.13
2022-11-22T06:01:22.485Z,2.63
2022-11-22T06:03:49.965Z,2.37
2022-11-22T06:06:16.808Z,2.20
2022-11-22T06:08:48.735Z,2.03
2022-11-22T06:11:23.401Z,2.40
2022-11-22T06:13:59.631Z,2.03
2022-11-22T06:16:27.683Z,2.47
2022-11-22T06:18:55.269Z,2.90
2022-11-22T06:21:24.611Z,2.33
2022-11-22T06:23:52.963Z,2.60
2022-11-22T06:26:20.833Z,1.60
2022-11-22T06:28:48.840Z,1.90
2022-11-22T06:31:23.120Z,2.60
2022-11-22T06:33:50.646Z,3.03
2022-11-22T06:36:23.246Z,2.73
2022-11-22T06:38:49.970Z,2.53
2022-11-22T06:41:19.879Z,2.30
2022-11-22T06:43:49.555Z,2.40
2022-11-22T06:46:21.717Z,2.40
2022-11-22T06:48:49.035Z,1.93
2022-11-22T06:51:20.964Z,2.20
2022-11-22T06:53:49.500Z,2.73
2022-11-22T06:56:17.939Z,2.50
2022-11-22T06:58:45.751Z,2.30
2022-11-22T07:01:15.842Z,2.93
2022-11-22T07:03:43.328Z,2.80
2022-11-22T07:06:11.661Z,2.73
2022-11-22T07:08:39.427Z,3.07
2022-11-22T07:11:12.025Z,2.47
2022-11-22T07:13:38.922Z,2.77
2022-11-22T07:16:08.318Z,2.80
2022-11-22T07:18:35.102Z,3.20
2022-11-22T07:21:08.004Z,3.13
2022-11-22T07:23:39.625Z,2.40
2022-11-22T07:26:06.570Z,2.60
2022-11-22T07:28:33.444Z,3.00
2022-11-22T07:31:02.367Z,2.33
2022-11-22T07:33:29.405Z,2.87
2022-11-22T07:35:56.804Z,1.73
2022-11-22T07:38:23.617Z,2.37
2022-11-22T07:40:50.237Z,2.43
2022-11-22T07:43:16.947Z,2.40
2022-11-22T07:45:43.808Z,2.47
2022-11-22T07:48:14.809Z,2.43
2022-11-22T07:50:43.014Z,2.60
2022-11-22T07:53:10.646Z,2.40
2022-11-22T07:55:37.322Z,2.50
2022-11-22T07:58:04.315Z,2.77
2022-11-22T08:00:31.803Z,3.10
2022-11-22T08:02:59.552Z,2.67
2022-11-22T08:05:26.886Z,2.70
2022-11-22T08:07:54.817Z,2.60
2022-11-22T08:10:22.093Z,2.40
2022-11-22T08:12:49.130Z,3.20
2022-11-22T08:15:16.936Z,3.27
2022-11-22T08:17:43.877Z,3.30
2022-11-22T08:20:11.436Z,2.63
2022-11-22T08:22:39.360Z,2.60
2022-11-22T08:25:12.418Z,2.70
2022-11-22T08:27:43.464Z,2.83
2022-11-22T08:30:11.693Z,2.80
2022-11-22T08:32:38.714Z,3.23
2022-11-22T08:35:06.157Z,2.47
2022-11-22T08:37:33.183Z,3.17
2022-11-22T08:40:00.253Z,2.90
2022-11-22T08:42:27.536Z,2.77
2022-11-22T08:44:54.328Z,3.00
2022-11-22T08:47:21.092Z,2.77
2022-11-22T08:49:47.998Z,2.60
2022-11-22T08:52:14.696Z,2.73
2022-11-22T08:54:41.434Z,2.73
2022-11-22T08:57:08.421Z,2.83
2022-11-22T08:59:35.208Z,2.40
2022-11-22T09:02:02.089Z,2.57
2022-11-22T09:04:29.143Z,2.10
2022-11-22T09:09:42.885Z,2.47
2022-11-22T09:12:09.733Z,2.30
2022-11-22T09:14:36.484Z,3.10
2022-11-22T09:17:03.363Z,3.10
2022-11-22T09:19:30.358Z,2.50
2022-11-22T09:21:57.217Z,2.47
2022-11-22T09:24:24.026Z,2.87
2022-11-22T09:26:50.651Z,2.67
2022-11-22T09:29:17.334Z,2.80
2022-11-22T09:31:44.887Z,3.10
2022-11-22T09:34:11.645Z,2.53
2022-11-22T09:36:38.565Z,2.50
2022-11-22T09:39:05.687Z,2.60
2022-11-22T09:41:57.509Z,2.47
2022-11-22T09:44:32.317Z,2.27
2022-11-22T09:47:08.201Z,2.13
2022-11-22T09:49:41.486Z,2.37
2022-11-22T09:52:10.881Z,2.53
2022-11-22T09:54:50.269Z,2.70
2022-11-22T09:57:29.370Z,2.37
2022-11-22T10:00:07.104Z,2.40
2022-11-22T10:02:58.717Z,2.50
2022-11-22T10:05:30.754Z,2.33
2022-11-22T10:08:40.886Z,1.90
2022-11-22T10:11:36.757Z,2.30
2022-11-22T10:14:28.739Z,2.33
2022-11-22T10:17:00.390Z,2.33
2022-11-22T10:19:37.978Z,2.30
2022-11-22T10:22:12.993Z,2.40
2022-11-22T10:24:39.739Z,1.50
2022-11-22T10:27:14.053Z,2.17
2022-11-22T10:30:01.015Z,2.70
2022-11-22T10:32:53.021Z,2.23
2022-11-22T10:35:34.067Z,1.90
2022-11-22T10:38:06.200Z,2.10
2022-11-22T10:41:06.072Z,2.47
2022-11-22T10:43:47.991Z,2.53
2022-11-22T10:46:20.492Z,2.50
2022-11-22T10:49:00.755Z,2.20
2022-11-22T10:51:48.946Z,2.63
2022-11-22T10:54:21.290Z,2.23
2022-11-22T10:56:56.146Z,2.27
2022-11-22T10:59:57.152Z,2.03
2022-11-22T11:02:56.990Z,2.17
2022-11-22T11:05:33.309Z,2.47
2022-11-22T11:08:21.978Z,2.20
2022-11-22T11:10:47.371Z,2.07
2022-11-22T11:13:25.051Z,2.10
2022-11-22T11:15:56.441Z,2.77
2022-11-22T11:18:45.669Z,2.30
2022-11-22T11:21:15.828Z,2.37
2022-11-22T11:23:42.801Z,2.47
2022-11-22T11:26:27.523Z,1.73
2022-11-22T11:29:18.907Z,1.80
2022-11-22T11:31:50.016Z,2.47
2022-11-22T11:34:29.838Z,2.17
2022-11-22T11:36:58.214Z,2.33
2022-11-22T11:39:29.921Z,2.30
2022-11-22T11:41:57.682Z,2.33
2022-11-22T11:44:32.462Z,2.37
2022-11-22T11:46:59.815Z,2.17
2022-11-22T11:49:34.736Z,2.20
2022-11-22T11:52:11.764Z,2.50
2022-11-22T11:54:38.702Z,2.13
2022-11-22T11:57:14.044Z,2.10
2022-11-22T11:59:40.926Z,2.47
2022-11-22T12:02:15.480Z,2.23
2022-11-22T12:04:56.323Z,1.37
2022-11-22T12:07:25.497Z,1.80
2022-11-22T12:09:54.578Z,1.80
2022-11-22T12:12:27.475Z,2.50
2022-11-22T12:15:18.793Z,2.07
2022-11-22T12:18:00.597Z,2.00
2022-11-22T12:20:36.460Z,2.53
2022-11-22T12:23:21.811Z,1.90
2022-11-22T12:25:52.244Z,1.80
2022-11-22T12:28:25.180Z,2.20
2022-11-22T12:31:10.592Z,2.07
2022-11-22T12:33:53.387Z,1.80
2022-11-22T12:36:47.263Z,2.10
2022-11-22T12:39:20.930Z,1.63
2022-11-22T12:41:50.750Z,2.20
2022-11-22T12:44:20.993Z,1.97
2022-11-22T12:46:55.341Z,2.00
2022-11-22T12:49:31.274Z,1.77
2022-11-22T12:52:37.584Z,2.27
2022-11-22T12:55:17.233Z,2.50
2022-11-22T12:58:02.220Z,2.10
2022-11-22T13:00:34.615Z,1.97
2022-11-22T13:03:27.393Z,2.00
2022-11-22T13:05:57.092Z,2.03
2022-11-22T13:09:03.247Z,1.90
2022-11-22T13:11:41.020Z,1.63
2022-11-22T13:14:20.611Z,2.10
2022-11-22T13:16:50.839Z,2.10
2022-11-22T13:19:20.389Z,1.90
2022-11-22T13:21:59.616Z,2.20
2022-11-22T13:24:46.288Z,2.13
2022-11-22T13:27:31.651Z,2.00
2022-11-22T13:30:01.873Z,1.90
2022-11-22T13:32:36.180Z,2.23
2022-11-22T13:35:12.261Z,2.20
2022-11-22T13:37:42.690Z,1.90
2022-11-22T13:40:24.168Z,2.37
2022-11-22T13:43:21.462Z,2.70
2022-11-22T13:46:04.550Z,1.90
2022-11-22T13:48:39.960Z,1.93
2022-11-22T13:51:09.061Z,1.93
2022-11-22T13:53:38.065Z,2.03
2022-11-22T13:56:16.898Z,2.20
2022-11-22T13:58:51.764Z,1.83
2022-11-22T14:01:42.122Z,2.07
2022-11-22T14:04:19.762Z,2.20
2022-11-22T14:06:52.119Z,2.43
2022-11-22T14:09:40.223Z,2.07
2022-11-22T14:12:10.810Z,2.30
2022-11-22T14:14:37.419Z,2.50
2022-11-22T14:17:42.289Z,2.17
2022-11-22T14:20:33.618Z,2.20
2022-11-22T14:23:25.090Z,2.33
2022-11-22T14:25:57.966Z,2.30
2022-11-22T14:29:12.830Z,2.10
2022-11-22T14:31:40.349Z,2.30
2022-11-22T14:34:26.181Z,2.57
2022-11-22T14:37:11.256Z,2.33
2022-11-22T14:39:56.289Z,2.60
2022-11-22T14:42:40.099Z,2.43
2022-11-22T14:45:12.819Z,2.57
2022-11-22T14:47:44.812Z,2.50
2022-11-22T14:50:42.987Z,2.50
2022-11-22T14:53:21.586Z,2.30
2022-11-22T14:55:52.609Z,2.50
2022-11-22T14:58:28.496Z,2.73
2022-11-22T15:01:05.924Z,2.23
2022-11-22T15:09:21.961Z,2.47
2022-11-22T15:09:23.702Z,2.70
2022-11-22T15:10:17.715Z,2.40
2022-11-22T15:12:59.866Z,2.30
2022-11-22T15:59:36.744Z,1.50
2022-11-22T16:02:03.777Z,1.50
2022-11-22T16:04:36.120Z,1.77
2022-11-22T16:07:07.365Z,1.73
2022-11-22T16:09:36.289Z,1.97
2022-11-22T16:12:06.370Z,1.60
2022-11-22T16:14:49.733Z,1.60
2022-11-22T16:17:33.014Z,1.50
2022-11-22T16:20:38.965Z,1.60
2022-11-22T16:23:14.745Z,1.80
2022-11-22T16:25:47.189Z,1.30
2022-11-22T16:28:31.032Z,1.40
2022-11-22T16:31:04.434Z,1.30
2022-11-22T16:33:31.687Z,1.20
2022-11-22T16:36:01.324Z,1.40
2022-11-22T16:38:28.975Z,1.47
2022-11-22T16:40:58.198Z,1.63
2022-11-22T16:43:26.986Z,1.73
2022-11-22T16:45:56.610Z,1.40
2022-11-22T16:48:33.416Z,2.17
2022-11-22T16:51:06.829Z,1.80
2022-11-22T16:53:45.863Z,2.33
2022-11-22T16:56:19.821Z,1.57
2022-11-22T16:58:48.109Z,1.93
2022-11-22T17:01:19.106Z,1.33
2022-11-22T17:03:47.710Z,1.73
2022-11-22T17:06:16.457Z,1.53
2022-11-22T17:08:43.269Z,1.93
2022-11-22T17:11:11.189Z,2.00
2022-11-22T17:13:37.909Z,2.07
2022-11-22T17:16:24.940Z,1.87
2022-11-22T17:18:53.106Z,1.53
2022-11-22T17:21:37.372Z,1.90
2022-11-22T17:24:20.039Z,2.00
2022-11-22T17:26:47.498Z,1.87
2022-11-22T17:29:35.206Z,2.13
2022-11-22T17:32:01.232Z,1.97
2022-11-22T17:34:28.096Z,2.07
2022-11-22T17:36:55.035Z,3.60
2022-11-22T17:39:21.871Z,2.00
2022-11-22T17:41:49.584Z,1.83
2022-11-22T17:44:18.054Z,1.70
2022-11-22T17:46:45.438Z,2.00
2022-11-22T17:49:15.775Z,1.90
2022-11-22T17:51:43.111Z,2.70
2022-11-22T17:54:10.211Z,2.63
2022-11-22T17:56:37.711Z,2.57
2022-11-22T17:59:05.059Z,2.67
2022-11-22T18:02:30.916Z,2.50
2022-11-22T18:05:56.110Z,2.20
2022-11-22T18:09:21.728Z,2.30
2022-11-22T18:13:13.445Z,1.70
2022-11-22T18:16:32.627Z,1.70
2022-11-22T18:20:00.534Z,1.70
2022-11-22T18:23:26.522Z,2.27
2022-11-22T18:26:51.731Z,2.50
2022-11-22T18:30:17.114Z,3.47
2022-11-22T18:33:42.319Z,3.20
2022-11-22T18:37:21.161Z,3.33
2022-11-22T18:40:46.564Z,2.97
2022-11-22T18:44:12.193Z,3.67
2022-11-22T18:47:37.389Z,3.83
2022-11-22T18:51:08.250Z,4.10
2022-11-22T18:54:37.262Z,4.40
2022-11-22T18:58:02.849Z,3.80
2022-11-22T19:01:29.085Z,4.20
2022-11-22T19:04:54.619Z,4.63
2022-11-22T19:08:19.878Z,4.07
2022-11-22T19:12:00.123Z,4.73
2022-11-22T19:15:26.550Z,4.63
2022-11-22T19:18:52.006Z,3.87
2022-11-22T19:22:19.181Z,3.40
2022-11-22T19:25:44.578Z,3.27
2022-11-22T19:29:09.887Z,3.57
2022-11-22T19:32:35.266Z,3.40
2022-11-22T19:36:02.256Z,4.00
2022-11-22T19:39:28.696Z,3.70
2022-11-22T19:42:57.352Z,3.73
2022-11-22T19:46:23.071Z,2.87
2022-11-22T19:50:00.766Z,3.00
2022-11-22T19:53:26.743Z,2.60
2022-11-22T19:56:52.102Z,3.50
2022-11-22T20:00:17.853Z,2.70
2022-11-22T20:03:45.342Z,2.53
2022-11-22T20:07:11.619Z,2.07
2022-11-22T20:10:38.530Z,2.40
2022-11-22T20:14:04.444Z,2.13
2022-11-22T20:17:30.992Z,2.43
2022-11-22T20:21:00.168Z,2.20
2022-11-22T20:24:25.893Z,1.70
2022-11-22T20:27:51.343Z,1.90
2022-11-22T20:31:17.972Z,1.00
2022-11-22T20:34:44.888Z,1.60
2022-11-22T20:38:10.196Z,1.80
2022-11-22T20:41:36.710Z,2.23
2022-11-22T20:45:03.732Z,1.93
2022-11-22T20:48:30.596Z,1.57
2022-11-22T20:51:57.707Z,1.60
2022-11-22T20:55:24.018Z,1.63
2022-11-22T20:58:49.724Z,1.70
2022-11-22T21:02:18.491Z,1.97
2022-11-22T21:05:46.882Z,1.80
2022-11-22T21:09:12.474Z,1.60
2022-11-22T21:12:37.812Z,1.53
2022-11-22T21:16:21.518Z,3.13
2022-11-22T21:19:51.247Z,1.70
2022-11-22T21:23:16.772Z,2.63
2022-11-22T21:26:42.055Z,2.40
2022-11-22T21:30:07.833Z,2.17
2022-11-22T21:33:33.992Z,1.70
2022-11-22T21:37:00.195Z,1.77
2022-11-22T21:40:25.571Z,1.43
2022-11-22T21:43:53.785Z,1.40
2022-11-22T21:47:21.690Z,1.27
2022-11-22T21:50:47.753Z,1.40
2022-11-22T21:54:13.036Z,1.60
2022-11-22T21:57:38.563Z,1.27
2022-11-22T22:01:10.862Z,1.00
2022-11-22T22:04:39.153Z,1.40
2022-11-22T22:08:04.582Z,1.37
2022-11-22T22:11:29.994Z,1.00
2022-11-22T22:14:55.242Z,1.40
2022-11-22T22:18:20.745Z,1.40
2022-11-22T22:21:46.293Z,1.37
2022-11-22T22:25:11.669Z,1.27
2022-11-22T22:28:38.011Z,1.30
2022-11-22T22:32:10.508Z,1.90
2022-11-22T22:35:36.146Z,2.07
2022-11-22T22:39:01.638Z,1.57
2022-11-22T22:42:26.893Z,2.33
2022-11-22T22:45:52.242Z,2.23
2022-11-22T22:49:17.817Z,2.13
2022-11-22T22:52:43.300Z,2.23
2022-11-22T22:56:09.284Z,2.07
2022-11-22T22:59:34.779Z,1.30
2022-11-22T23:03:00.076Z,1.33
2022-11-22T23:06:26.664Z,1.57
2022-11-22T23:09:52.458Z,1.30
2022-11-22T23:13:18.010Z,1.40
2022-11-22T23:16:43.205Z,1.70
2022-11-22T23:20:08.769Z,1.43
2022-11-22T23:23:34.414Z,0.83
2022-11-22T23:27:00.773Z,1.60
2022-11-22T23:30:26.046Z,1.37
2022-11-22T23:33:51.436Z,1.00
2022-11-22T23:37:17.610Z,1.30
2022-11-22T23:40:42.997Z,1.40
2022-11-22T23:44:08.314Z,1.47
2022-11-22T23:47:33.624Z,1.77
2022-11-22T23:51:04.878Z,1.30
2022-11-22T23:54:30.363Z,1.20
2022-11-22T23:57:57.199Z,1.27
